sensor_id;sensor_type;location;lat;lon;timestamp;P1;durP1;ratioP1;P2;durP2;ratioP2
77191;SDS011;66172;48.526;8.078;2024-01-11T00:00:14;28.50;;;10.38;;
77191;SDS011;66172;48.526;8.078;2024-01-11T00:02:40;28.73;;;11.02;;
77191;SDS011;66172;48.526;8.078;2024-01-11T00:05:06;32.40;;;12.15;;
77191;SDS011;66172;48.526;8.078;2024-01-11T00:07:32;30.00;;;12.87;;
77191;SDS011;66172;48.526;8.078;2024-01-11T00:09:58;27.65;;;10.95;;
77191;SDS011;66172;48.526;8.078;2024-01-11T00:12:26;34.40;;;11.30;;
77191;SDS011;66172;48.526;8.078;2024-01-11T00:14:52;30.90;;;11.95;;
77191;SDS011;66172;48.526;8.078;2024-01-11T00:17:18;29.50;;;11.77;;
77191;SDS011;66172;48.526;8.078;2024-01-11T00:19:44;29.80;;;10.82;;
77191;SDS011;66172;48.526;8.078;2024-01-11T00:22:10;30.45;;;11.63;;
77191;SDS011;66172;48.526;8.078;2024-01-11T00:24:36;32.70;;;12.32;;
77191;SDS011;66172;48.526;8.078;2024-01-11T00:27:02;30.20;;;11.67;;
77191;SDS011;66172;48.526;8.078;2024-01-11T00:29:28;27.75;;;11.43;;
77191;SDS011;66172;48.526;8.078;2024-01-11T00:31:54;33.75;;;11.95;;
77191;SDS011;66172;48.526;8.078;2024-01-11T00:34:21;32.97;;;12.23;;
77191;SDS011;66172;48.526;8.078;2024-01-11T00:36:47;31.43;;;11.50;;
77191;SDS011;66172;48.526;8.078;2024-01-11T00:39:13;31.67;;;12.35;;
77191;SDS011;66172;48.526;8.078;2024-01-11T00:41:40;32.42;;;12.77;;
77191;SDS011;66172;48.526;8.078;2024-01-11T00:44:06;30.83;;;12.02;;
77191;SDS011;66172;48.526;8.078;2024-01-11T00:46:33;33.03;;;11.90;;
77191;SDS011;66172;48.526;8.078;2024-01-11T00:49:00;34.10;;;12.57;;
77191;SDS011;66172;48.526;8.078;2024-01-11T00:51:25;31.85;;;12.02;;
77191;SDS011;66172;48.526;8.078;2024-01-11T00:53:51;31.67;;;11.57;;
77191;SDS011;66172;48.526;8.078;2024-01-11T00:56:18;31.77;;;11.80;;
77191;SDS011;66172;48.526;8.078;2024-01-11T00:58:45;31.23;;;11.52;;
77191;SDS011;66172;48.526;8.078;2024-01-11T01:01:11;30.15;;;11.40;;
77191;SDS011;66172;48.526;8.078;2024-01-11T01:03:38;28.25;;;10.60;;
77191;SDS011;66172;48.526;8.078;2024-01-11T01:06:04;29.48;;;11.23;;
77191;SDS011;66172;48.526;8.078;2024-01-11T01:08:30;26.73;;;10.57;;
77191;SDS011;66172;48.526;8.078;2024-01-11T01:10:56;31.00;;;12.43;;
77191;SDS011;66172;48.526;8.078;2024-01-11T01:13:22;28.75;;;11.50;;
77191;SDS011;66172;48.526;8.078;2024-01-11T01:15:48;27.70;;;10.32;;
77191;SDS011;66172;48.526;8.078;2024-01-11T01:18:14;27.13;;;10.77;;
77191;SDS011;66172;48.526;8.078;2024-01-11T01:20:40;30.00;;;10.82;;
77191;SDS011;66172;48.526;8.078;2024-01-11T01:23:06;28.75;;;10.45;;
77191;SDS011;66172;48.526;8.078;2024-01-11T01:25:32;29.95;;;11.52;;
77191;SDS011;66172;48.526;8.078;2024-01-11T01:28:00;27.40;;;10.80;;
77191;SDS011;66172;48.526;8.078;2024-01-11T01:30:26;32.38;;;11.02;;
77191;SDS011;66172;48.526;8.078;2024-01-11T01:32:53;30.52;;;12.00;;
77191;SDS011;66172;48.526;8.078;2024-01-11T01:35:19;32.38;;;11.27;;
77191;SDS011;66172;48.526;8.078;2024-01-11T01:37:45;29.23;;;11.40;;
77191;SDS011;66172;48.526;8.078;2024-01-11T01:40:11;29.87;;;11.60;;
77191;SDS011;66172;48.526;8.078;2024-01-11T01:42:43;28.40;;;11.80;;
77191;SDS011;66172;48.526;8.078;2024-01-11T01:45:10;28.05;;;11.25;;
77191;SDS011;66172;48.526;8.078;2024-01-11T01:47:36;30.77;;;11.95;;
77191;SDS011;66172;48.526;8.078;2024-01-11T01:50:05;33.00;;;11.57;;
77191;SDS011;66172;48.526;8.078;2024-01-11T01:52:32;26.15;;;10.70;;
77191;SDS011;66172;48.526;8.078;2024-01-11T01:54:59;31.20;;;11.95;;
77191;SDS011;66172;48.526;8.078;2024-01-11T01:57:27;28.75;;;11.27;;
77191;SDS011;66172;48.526;8.078;2024-01-11T01:59:53;29.33;;;11.82;;
77191;SDS011;66172;48.526;8.078;2024-01-11T02:02:20;40.23;;;16.37;;
77191;SDS011;66172;48.526;8.078;2024-01-11T02:04:47;36.33;;;13.95;;
77191;SDS011;66172;48.526;8.078;2024-01-11T02:07:13;36.28;;;14.95;;
77191;SDS011;66172;48.526;8.078;2024-01-11T02:09:39;33.58;;;13.43;;
77191;SDS011;66172;48.526;8.078;2024-01-11T02:12:06;32.33;;;12.60;;
77191;SDS011;66172;48.526;8.078;2024-01-11T02:14:34;30.47;;;12.17;;
77191;SDS011;66172;48.526;8.078;2024-01-11T02:17:03;31.52;;;10.18;;
77191;SDS011;66172;48.526;8.078;2024-01-11T02:19:29;29.15;;;10.63;;
77191;SDS011;66172;48.526;8.078;2024-01-11T02:21:54;28.90;;;10.80;;
77191;SDS011;66172;48.526;8.078;2024-01-11T02:24:25;31.98;;;11.75;;
77191;SDS011;66172;48.526;8.078;2024-01-11T02:27:04;27.83;;;11.50;;
77191;SDS011;66172;48.526;8.078;2024-01-11T02:29:30;33.17;;;11.30;;
77191;SDS011;66172;48.526;8.078;2024-01-11T02:31:57;30.33;;;11.63;;
77191;SDS011;66172;48.526;8.078;2024-01-11T02:34:26;25.80;;;10.07;;
77191;SDS011;66172;48.526;8.078;2024-01-11T02:36:53;27.13;;;10.73;;
77191;SDS011;66172;48.526;8.078;2024-01-11T02:39:19;27.87;;;10.33;;
77191;SDS011;66172;48.526;8.078;2024-01-11T02:41:47;27.38;;;10.07;;
77191;SDS011;66172;48.526;8.078;2024-01-11T02:44:16;28.05;;;10.57;;
77191;SDS011;66172;48.526;8.078;2024-01-11T02:46:41;28.35;;;10.52;;
77191;SDS011;66172;48.526;8.078;2024-01-11T02:49:07;28.67;;;10.87;;
77191;SDS011;66172;48.526;8.078;2024-01-11T02:51:33;31.42;;;10.60;;
77191;SDS011;66172;48.526;8.078;2024-01-11T02:53:59;25.80;;;11.13;;
77191;SDS011;66172;48.526;8.078;2024-01-11T02:56:25;31.75;;;11.05;;
77191;SDS011;66172;48.526;8.078;2024-01-11T02:58:51;30.63;;;10.93;;
77191;SDS011;66172;48.526;8.078;2024-01-11T03:01:17;31.23;;;12.45;;
77191;SDS011;66172;48.526;8.078;2024-01-11T03:03:43;30.98;;;11.13;;
77191;SDS011;66172;48.526;8.078;2024-01-11T03:06:09;29.57;;;11.40;;
77191;SDS011;66172;48.526;8.078;2024-01-11T03:08:35;27.45;;;10.77;;
77191;SDS011;66172;48.526;8.078;2024-01-11T03:11:00;32.25;;;12.70;;
77191;SDS011;66172;48.526;8.078;2024-01-11T03:13:27;33.17;;;11.82;;
77191;SDS011;66172;48.526;8.078;2024-01-11T03:15:53;32.47;;;11.60;;
77191;SDS011;66172;48.526;8.078;2024-01-11T03:18:19;28.95;;;10.93;;
77191;SDS011;66172;48.526;8.078;2024-01-11T03:20:44;31.50;;;12.32;;
77191;SDS011;66172;48.526;8.078;2024-01-11T03:23:10;33.53;;;12.68;;
77191;SDS011;66172;48.526;8.078;2024-01-11T03:25:36;29.93;;;12.07;;
77191;SDS011;66172;48.526;8.078;2024-01-11T03:28:02;34.58;;;12.30;;
77191;SDS011;66172;48.526;8.078;2024-01-11T03:30:28;32.10;;;11.73;;
77191;SDS011;66172;48.526;8.078;2024-01-11T03:32:54;32.60;;;12.70;;
77191;SDS011;66172;48.526;8.078;2024-01-11T03:35:20;32.45;;;11.00;;
77191;SDS011;66172;48.526;8.078;2024-01-11T03:37:46;30.90;;;12.30;;
77191;SDS011;66172;48.526;8.078;2024-01-11T03:40:12;29.15;;;11.43;;
77191;SDS011;66172;48.526;8.078;2024-01-11T03:42:38;27.40;;;11.00;;
77191;SDS011;66172;48.526;8.078;2024-01-11T03:45:04;28.35;;;11.73;;
77191;SDS011;66172;48.526;8.078;2024-01-11T03:47:30;28.33;;;11.00;;
77191;SDS011;66172;48.526;8.078;2024-01-11T03:49:56;25.93;;;10.80;;
77191;SDS011;66172;48.526;8.078;2024-01-11T03:52:22;27.80;;;11.63;;
77191;SDS011;66172;48.526;8.078;2024-01-11T03:54:48;31.08;;;11.93;;
77191;SDS011;66172;48.526;8.078;2024-01-11T03:57:14;32.90;;;11.30;;
77191;SDS011;66172;48.526;8.078;2024-01-11T03:59:41;28.73;;;10.65;;
77191;SDS011;66172;48.526;8.078;2024-01-11T04:02:06;30.27;;;11.63;;
77191;SDS011;66172;48.526;8.078;2024-01-11T04:04:33;32.33;;;11.35;;
77191;SDS011;66172;48.526;8.078;2024-01-11T04:06:59;32.75;;;11.73;;
77191;SDS011;66172;48.526;8.078;2024-01-11T04:09:25;30.13;;;11.57;;
77191;SDS011;66172;48.526;8.078;2024-01-11T04:11:50;30.07;;;11.87;;
77191;SDS011;66172;48.526;8.078;2024-01-11T04:14:16;27.48;;;11.90;;
77191;SDS011;66172;48.526;8.078;2024-01-11T04:16:42;30.48;;;12.57;;
77191;SDS011;66172;48.526;8.078;2024-01-11T04:19:09;27.07;;;11.73;;
77191;SDS011;66172;48.526;8.078;2024-01-11T04:21:35;26.42;;;11.25;;
77191;SDS011;66172;48.526;8.078;2024-01-11T04:24:02;35.28;;;11.13;;
77191;SDS011;66172;48.526;8.078;2024-01-11T04:26:28;30.88;;;11.23;;
77191;SDS011;66172;48.526;8.078;2024-01-11T04:28:54;26.93;;;10.67;;
77191;SDS011;66172;48.526;8.078;2024-01-11T04:31:21;28.37;;;10.67;;
77191;SDS011;66172;48.526;8.078;2024-01-11T04:33:47;24.80;;;10.27;;
77191;SDS011;66172;48.526;8.078;2024-01-11T04:36:13;28.50;;;11.05;;
77191;SDS011;66172;48.526;8.078;2024-01-11T04:38:39;24.35;;;9.93;;
77191;SDS011;66172;48.526;8.078;2024-01-11T04:41:08;28.10;;;10.67;;
77191;SDS011;66172;48.526;8.078;2024-01-11T04:43:37;30.50;;;10.48;;
77191;SDS011;66172;48.526;8.078;2024-01-11T04:46:04;29.48;;;11.55;;
77191;SDS011;66172;48.526;8.078;2024-01-11T04:48:41;32.47;;;12.13;;
77191;SDS011;66172;48.526;8.078;2024-01-11T04:51:07;28.57;;;10.93;;
77191;SDS011;66172;48.526;8.078;2024-01-11T04:53:33;27.55;;;11.55;;
77191;SDS011;66172;48.526;8.078;2024-01-11T04:56:02;34.00;;;12.80;;
77191;SDS011;66172;48.526;8.078;2024-01-11T04:58:28;33.92;;;13.43;;
77191;SDS011;66172;48.526;8.078;2024-01-11T05:00:54;33.27;;;12.80;;
77191;SDS011;66172;48.526;8.078;2024-01-11T05:03:20;31.80;;;12.07;;
77191;SDS011;66172;48.526;8.078;2024-01-11T05:05:46;34.60;;;12.90;;
77191;SDS011;66172;48.526;8.078;2024-01-11T05:08:11;34.07;;;12.37;;
77191;SDS011;66172;48.526;8.078;2024-01-11T05:10:37;37.93;;;12.70;;
77191;SDS011;66172;48.526;8.078;2024-01-11T05:13:03;31.20;;;12.23;;
77191;SDS011;66172;48.526;8.078;2024-01-11T05:15:29;32.80;;;11.93;;
77191;SDS011;66172;48.526;8.078;2024-01-11T05:17:55;29.67;;;10.90;;
77191;SDS011;66172;48.526;8.078;2024-01-11T05:20:24;30.63;;;11.65;;
77191;SDS011;66172;48.526;8.078;2024-01-11T05:22:50;34.45;;;11.52;;
77191;SDS011;66172;48.526;8.078;2024-01-11T05:25:16;31.87;;;12.30;;
77191;SDS011;66172;48.526;8.078;2024-01-11T05:27:42;36.20;;;12.57;;
77191;SDS011;66172;48.526;8.078;2024-01-11T05:30:08;29.80;;;12.52;;
77191;SDS011;66172;48.526;8.078;2024-01-11T05:32:35;30.73;;;11.35;;
77191;SDS011;66172;48.526;8.078;2024-01-11T05:35:01;31.27;;;12.05;;
77191;SDS011;66172;48.526;8.078;2024-01-11T05:37:27;29.23;;;12.10;;
77191;SDS011;66172;48.526;8.078;2024-01-11T05:39:52;36.22;;;13.43;;
77191;SDS011;66172;48.526;8.078;2024-01-11T05:42:19;33.47;;;13.20;;
77191;SDS011;66172;48.526;8.078;2024-01-11T05:44:45;31.30;;;12.10;;
77191;SDS011;66172;48.526;8.078;2024-01-11T05:47:11;36.78;;;12.65;;
77191;SDS011;66172;48.526;8.078;2024-01-11T05:49:37;33.88;;;13.00;;
77191;SDS011;66172;48.526;8.078;2024-01-11T05:52:03;35.85;;;13.55;;
77191;SDS011;66172;48.526;8.078;2024-01-11T05:54:29;31.03;;;13.20;;
77191;SDS011;66172;48.526;8.078;2024-01-11T05:56:55;30.40;;;12.18;;
77191;SDS011;66172;48.526;8.078;2024-01-11T05:59:23;30.20;;;11.02;;
77191;SDS011;66172;48.526;8.078;2024-01-11T06:01:49;27.70;;;10.77;;
77191;SDS011;66172;48.526;8.078;2024-01-11T06:04:14;34.93;;;13.07;;
77191;SDS011;66172;48.526;8.078;2024-01-11T06:06:40;36.20;;;12.70;;
77191;SDS011;66172;48.526;8.078;2024-01-11T06:09:06;35.20;;;12.23;;
77191;SDS011;66172;48.526;8.078;2024-01-11T06:11:32;48.80;;;15.53;;
77191;SDS011;66172;48.526;8.078;2024-01-11T06:13:58;47.78;;;17.70;;
77191;SDS011;66172;48.526;8.078;2024-01-11T06:16:26;49.13;;;18.98;;
77191;SDS011;66172;48.526;8.078;2024-01-11T06:18:51;40.03;;;15.20;;
77191;SDS011;66172;48.526;8.078;2024-01-11T06:21:17;37.07;;;14.53;;
77191;SDS011;66172;48.526;8.078;2024-01-11T06:23:43;32.05;;;12.88;;
77191;SDS011;66172;48.526;8.078;2024-01-11T06:26:09;39.92;;;13.00;;
77191;SDS011;66172;48.526;8.078;2024-01-11T06:28:35;35.65;;;13.95;;
77191;SDS011;66172;48.526;8.078;2024-01-11T06:31:01;35.20;;;12.90;;
77191;SDS011;66172;48.526;8.078;2024-01-11T06:33:28;38.88;;;14.52;;
77191;SDS011;66172;48.526;8.078;2024-01-11T06:35:55;36.08;;;14.15;;
77191;SDS011;66172;48.526;8.078;2024-01-11T06:38:21;40.55;;;14.82;;
77191;SDS011;66172;48.526;8.078;2024-01-11T06:40:48;39.03;;;15.40;;
77191;SDS011;66172;48.526;8.078;2024-01-11T06:43:14;34.60;;;14.17;;
77191;SDS011;66172;48.526;8.078;2024-01-11T06:45:42;37.25;;;13.73;;
77191;SDS011;66172;48.526;8.078;2024-01-11T06:48:08;34.22;;;12.45;;
77191;SDS011;66172;48.526;8.078;2024-01-11T06:50:34;31.67;;;12.20;;
77191;SDS011;66172;48.526;8.078;2024-01-11T06:53:00;32.03;;;12.10;;
77191;SDS011;66172;48.526;8.078;2024-01-11T06:55:27;35.65;;;12.02;;
77191;SDS011;66172;48.526;8.078;2024-01-11T06:57:53;30.27;;;11.98;;
77191;SDS011;66172;48.526;8.078;2024-01-11T07:00:19;33.80;;;13.55;;
77191;SDS011;66172;48.526;8.078;2024-01-11T07:02:45;34.13;;;13.57;;
77191;SDS011;66172;48.526;8.078;2024-01-11T07:05:11;32.47;;;12.27;;
77191;SDS011;66172;48.526;8.078;2024-01-11T07:07:37;37.92;;;13.18;;
77191;SDS011;66172;48.526;8.078;2024-01-11T07:10:03;34.00;;;11.52;;
77191;SDS011;66172;48.526;8.078;2024-01-11T07:12:31;38.03;;;12.43;;
77191;SDS011;66172;48.526;8.078;2024-01-11T07:14:57;36.13;;;13.20;;
77191;SDS011;66172;48.526;8.078;2024-01-11T07:17:24;34.63;;;12.70;;
77191;SDS011;66172;48.526;8.078;2024-01-11T07:19:50;36.75;;;13.80;;
77191;SDS011;66172;48.526;8.078;2024-01-11T07:22:16;42.72;;;14.57;;
77191;SDS011;66172;48.526;8.078;2024-01-11T07:24:42;39.77;;;14.47;;
77191;SDS011;66172;48.526;8.078;2024-01-11T07:27:08;47.03;;;16.02;;
77191;SDS011;66172;48.526;8.078;2024-01-11T07:29:34;45.63;;;16.55;;
77191;SDS011;66172;48.526;8.078;2024-01-11T07:32:00;46.78;;;16.30;;
77191;SDS011;66172;48.526;8.078;2024-01-11T07:34:27;43.27;;;16.17;;
77191;SDS011;66172;48.526;8.078;2024-01-11T07:36:53;42.92;;;16.80;;
77191;SDS011;66172;48.526;8.078;2024-01-11T07:39:19;46.83;;;16.00;;
77191;SDS011;66172;48.526;8.078;2024-01-11T07:41:45;41.03;;;15.88;;
77191;SDS011;66172;48.526;8.078;2024-01-11T07:44:11;41.80;;;15.98;;
77191;SDS011;66172;48.526;8.078;2024-01-11T07:46:37;42.90;;;15.30;;
77191;SDS011;66172;48.526;8.078;2024-01-11T07:49:03;39.03;;;15.30;;
77191;SDS011;66172;48.526;8.078;2024-01-11T07:51:30;38.63;;;15.48;;
77191;SDS011;66172;48.526;8.078;2024-01-11T07:53:56;37.15;;;15.27;;
77191;SDS011;66172;48.526;8.078;2024-01-11T07:56:22;45.03;;;15.50;;
77191;SDS011;66172;48.526;8.078;2024-01-11T07:58:48;47.22;;;17.02;;
77191;SDS011;66172;48.526;8.078;2024-01-11T08:01:15;44.80;;;18.38;;
77191;SDS011;66172;48.526;8.078;2024-01-11T08:03:41;37.30;;;15.93;;
77191;SDS011;66172;48.526;8.078;2024-01-11T08:06:10;38.53;;;16.35;;
77191;SDS011;66172;48.526;8.078;2024-01-11T08:08:39;49.65;;;17.15;;
77191;SDS011;66172;48.526;8.078;2024-01-11T08:11:08;43.35;;;16.00;;
77191;SDS011;66172;48.526;8.078;2024-01-11T08:13:34;42.80;;;15.70;;
77191;SDS011;66172;48.526;8.078;2024-01-11T08:16:00;38.37;;;16.43;;
77191;SDS011;66172;48.526;8.078;2024-01-11T08:18:30;44.90;;;16.60;;
77191;SDS011;66172;48.526;8.078;2024-01-11T08:20:56;40.60;;;15.57;;
77191;SDS011;66172;48.526;8.078;2024-01-11T08:23:22;44.75;;;16.95;;
77191;SDS011;66172;48.526;8.078;2024-01-11T08:25:49;46.97;;;16.70;;
77191;SDS011;66172;48.526;8.078;2024-01-11T08:28:15;41.17;;;17.00;;
77191;SDS011;66172;48.526;8.078;2024-01-11T08:30:41;45.35;;;18.10;;
77191;SDS011;66172;48.526;8.078;2024-01-11T08:33:08;49.28;;;18.08;;
77191;SDS011;66172;48.526;8.078;2024-01-11T08:35:34;45.72;;;18.35;;
77191;SDS011;66172;48.526;8.078;2024-01-11T08:38:00;57.23;;;20.00;;
77191;SDS011;66172;48.526;8.078;2024-01-11T08:40:27;57.38;;;20.33;;
77191;SDS011;66172;48.526;8.078;2024-01-11T08:42:53;45.53;;;18.17;;
77191;SDS011;66172;48.526;8.078;2024-01-11T08:45:18;44.08;;;17.45;;
77191;SDS011;66172;48.526;8.078;2024-01-11T08:47:45;41.03;;;17.73;;
77191;SDS011;66172;48.526;8.078;2024-01-11T08:50:13;46.03;;;18.88;;
77191;SDS011;66172;48.526;8.078;2024-01-11T08:52:40;47.88;;;18.33;;
77191;SDS011;66172;48.526;8.078;2024-01-11T08:55:07;48.50;;;18.65;;
77191;SDS011;66172;48.526;8.078;2024-01-11T08:57:33;50.33;;;18.60;;
77191;SDS011;66172;48.526;8.078;2024-01-11T09:00:01;47.85;;;18.45;;
77191;SDS011;66172;48.526;8.078;2024-01-11T09:02:28;39.47;;;16.35;;
77191;SDS011;66172;48.526;8.078;2024-01-11T09:04:54;42.35;;;16.05;;
77191;SDS011;66172;48.526;8.078;2024-01-11T09:07:19;44.93;;;18.80;;
77191;SDS011;66172;48.526;8.078;2024-01-11T09:09:45;49.88;;;20.90;;
77191;SDS011;66172;48.526;8.078;2024-01-11T09:12:11;46.10;;;19.65;;
77191;SDS011;66172;48.526;8.078;2024-01-11T09:14:37;42.88;;;17.45;;
77191;SDS011;66172;48.526;8.078;2024-01-11T09:17:04;39.57;;;16.07;;
77191;SDS011;66172;48.526;8.078;2024-01-11T09:19:32;41.80;;;17.55;;
77191;SDS011;66172;48.526;8.078;2024-01-11T09:21:59;43.25;;;17.05;;
77191;SDS011;66172;48.526;8.078;2024-01-11T09:24:25;37.55;;;16.52;;
77191;SDS011;66172;48.526;8.078;2024-01-11T09:26:51;39.63;;;15.85;;
77191;SDS011;66172;48.526;8.078;2024-01-11T09:29:17;41.73;;;16.10;;
77191;SDS011;66172;48.526;8.078;2024-01-11T09:31:43;41.40;;;16.70;;
77191;SDS011;66172;48.526;8.078;2024-01-11T09:34:10;38.50;;;15.88;;
77191;SDS011;66172;48.526;8.078;2024-01-11T09:36:36;44.47;;;16.33;;
77191;SDS011;66172;48.526;8.078;2024-01-11T09:39:04;42.30;;;16.17;;
77191;SDS011;66172;48.526;8.078;2024-01-11T09:41:35;43.05;;;16.80;;
77191;SDS011;66172;48.526;8.078;2024-01-11T09:44:03;41.15;;;15.85;;
77191;SDS011;66172;48.526;8.078;2024-01-11T09:46:31;40.47;;;16.40;;
77191;SDS011;66172;48.526;8.078;2024-01-11T09:48:57;43.83;;;16.90;;
77191;SDS011;66172;48.526;8.078;2024-01-11T09:51:24;41.17;;;17.50;;
77191;SDS011;66172;48.526;8.078;2024-01-11T09:53:51;38.45;;;16.08;;
77191;SDS011;66172;48.526;8.078;2024-01-11T09:56:20;43.45;;;18.35;;
77191;SDS011;66172;48.526;8.078;2024-01-11T09:58:46;40.92;;;17.05;;
77191;SDS011;66172;48.526;8.078;2024-01-11T10:01:16;42.33;;;16.63;;
77191;SDS011;66172;48.526;8.078;2024-01-11T10:03:43;39.08;;;16.80;;
77191;SDS011;66172;48.526;8.078;2024-01-11T10:06:10;41.03;;;16.42;;
77191;SDS011;66172;48.526;8.078;2024-01-11T10:08:36;39.17;;;17.20;;
77191;SDS011;66172;48.526;8.078;2024-01-11T10:11:02;37.95;;;15.98;;
77191;SDS011;66172;48.526;8.078;2024-01-11T10:13:29;39.90;;;16.87;;
77191;SDS011;66172;48.526;8.078;2024-01-11T10:18:35;40.00;;;17.88;;
77191;SDS011;66172;48.526;8.078;2024-01-11T10:21:02;40.08;;;16.85;;
77191;SDS011;66172;48.526;8.078;2024-01-11T10:23:29;44.15;;;18.23;;
77191;SDS011;66172;48.526;8.078;2024-01-11T10:25:57;41.27;;;17.90;;
77191;SDS011;66172;48.526;8.078;2024-01-11T10:28:26;41.15;;;17.88;;
77191;SDS011;66172;48.526;8.078;2024-01-11T10:30:52;42.80;;;19.33;;
77191;SDS011;66172;48.526;8.078;2024-01-11T10:33:19;47.25;;;18.95;;
77191;SDS011;66172;48.526;8.078;2024-01-11T10:35:46;43.28;;;18.27;;
77191;SDS011;66172;48.526;8.078;2024-01-11T10:38:14;42.20;;;18.43;;
77191;SDS011;66172;48.526;8.078;2024-01-11T10:40:41;43.97;;;19.60;;
77191;SDS011;66172;48.526;8.078;2024-01-11T10:43:11;41.53;;;18.30;;
77191;SDS011;66172;48.526;8.078;2024-01-11T10:45:38;41.42;;;18.38;;
77191;SDS011;66172;48.526;8.078;2024-01-11T10:48:14;42.20;;;19.17;;
77191;SDS011;66172;48.526;8.078;2024-01-11T10:50:44;43.37;;;19.37;;
77191;SDS011;66172;48.526;8.078;2024-01-11T10:56:05;44.17;;;18.10;;
77191;SDS011;66172;48.526;8.078;2024-01-11T10:58:34;43.47;;;19.08;;
77191;SDS011;66172;48.526;8.078;2024-01-11T11:01:03;41.03;;;18.73;;
77191;SDS011;66172;48.526;8.078;2024-01-11T11:03:31;43.83;;;19.73;;
77191;SDS011;66172;48.526;8.078;2024-01-11T11:06:00;41.92;;;19.88;;
77191;SDS011;66172;48.526;8.078;2024-01-11T11:08:26;42.38;;;19.25;;
77191;SDS011;66172;48.526;8.078;2024-01-11T11:10:55;43.33;;;18.63;;
77191;SDS011;66172;48.526;8.078;2024-01-11T11:13:23;47.28;;;19.15;;
77191;SDS011;66172;48.526;8.078;2024-01-11T11:15:49;45.20;;;19.80;;
77191;SDS011;66172;48.526;8.078;2024-01-11T11:18:15;39.35;;;18.92;;
77191;SDS011;66172;48.526;8.078;2024-01-11T11:20:42;43.97;;;19.85;;
77191;SDS011;66172;48.526;8.078;2024-01-11T11:23:09;42.60;;;20.25;;
77191;SDS011;66172;48.526;8.078;2024-01-11T11:25:36;45.38;;;20.60;;
77191;SDS011;66172;48.526;8.078;2024-01-11T11:28:03;40.50;;;19.67;;
77191;SDS011;66172;48.526;8.078;2024-01-11T11:30:32;42.17;;;19.38;;
77191;SDS011;66172;48.526;8.078;2024-01-11T11:33:11;43.60;;;19.90;;
77191;SDS011;66172;48.526;8.078;2024-01-11T11:35:42;44.85;;;20.52;;
77191;SDS011;66172;48.526;8.078;2024-01-11T11:38:08;43.20;;;19.58;;
77191;SDS011;66172;48.526;8.078;2024-01-11T11:40:42;46.70;;;19.50;;
77191;SDS011;66172;48.526;8.078;2024-01-11T11:43:10;40.40;;;19.02;;
77191;SDS011;66172;48.526;8.078;2024-01-11T11:45:37;42.33;;;19.13;;
77191;SDS011;66172;48.526;8.078;2024-01-11T11:48:47;41.38;;;18.48;;
77191;SDS011;66172;48.526;8.078;2024-01-11T11:51:28;39.85;;;18.65;;
77191;SDS011;66172;48.526;8.078;2024-01-11T11:53:48;44.70;;;19.60;;
77191;SDS011;66172;48.526;8.078;2024-01-11T11:56:16;46.05;;;20.00;;
77191;SDS011;66172;48.526;8.078;2024-01-11T11:58:44;43.83;;;17.95;;
77191;SDS011;66172;48.526;8.078;2024-01-11T12:01:11;48.28;;;19.73;;
77191;SDS011;66172;48.526;8.078;2024-01-11T12:03:43;42.60;;;20.02;;
77191;SDS011;66172;48.526;8.078;2024-01-11T12:06:15;39.27;;;19.03;;
77191;SDS011;66172;48.526;8.078;2024-01-11T12:08:43;43.10;;;20.25;;
77191;SDS011;66172;48.526;8.078;2024-01-11T12:11:12;40.88;;;18.70;;
77191;SDS011;66172;48.526;8.078;2024-01-11T12:13:39;44.25;;;19.52;;
77191;SDS011;66172;48.526;8.078;2024-01-11T12:16:06;42.92;;;19.58;;
77191;SDS011;66172;48.526;8.078;2024-01-11T12:18:31;41.80;;;19.60;;
77191;SDS011;66172;48.526;8.078;2024-01-11T12:20:57;42.60;;;19.15;;
77191;SDS011;66172;48.526;8.078;2024-01-11T12:23:23;41.83;;;19.15;;
77191;SDS011;66172;48.526;8.078;2024-01-11T12:25:49;45.30;;;19.45;;
77191;SDS011;66172;48.526;8.078;2024-01-11T12:28:15;41.97;;;19.30;;
77191;SDS011;66172;48.526;8.078;2024-01-11T12:30:42;42.50;;;19.55;;
77191;SDS011;66172;48.526;8.078;2024-01-11T12:33:08;41.53;;;18.83;;
77191;SDS011;66172;48.526;8.078;2024-01-11T12:35:35;40.53;;;19.15;;
77191;SDS011;66172;48.526;8.078;2024-01-11T12:38:03;41.90;;;18.63;;
77191;SDS011;66172;48.526;8.078;2024-01-11T12:40:32;42.15;;;18.67;;
77191;SDS011;66172;48.526;8.078;2024-01-11T12:43:00;42.85;;;19.60;;
77191;SDS011;66172;48.526;8.078;2024-01-11T12:45:26;42.65;;;18.75;;
77191;SDS011;66172;48.526;8.078;2024-01-11T12:47:54;45.17;;;19.80;;
77191;SDS011;66172;48.526;8.078;2024-01-11T12:50:25;40.30;;;17.90;;
77191;SDS011;66172;48.526;8.078;2024-01-11T12:53:09;45.85;;;19.13;;
77191;SDS011;66172;48.526;8.078;2024-01-11T12:55:45;44.90;;;19.33;;
77191;SDS011;66172;48.526;8.078;2024-01-11T12:58:19;39.47;;;18.60;;
77191;SDS011;66172;48.526;8.078;2024-01-11T13:00:46;40.65;;;19.08;;
77191;SDS011;66172;48.526;8.078;2024-01-11T13:03:12;41.63;;;19.97;;
77191;SDS011;66172;48.526;8.078;2024-01-11T13:05:37;44.50;;;19.90;;
77191;SDS011;66172;48.526;8.078;2024-01-11T13:08:08;41.58;;;18.88;;
77191;SDS011;66172;48.526;8.078;2024-01-11T13:10:35;38.03;;;19.25;;
77191;SDS011;66172;48.526;8.078;2024-01-11T13:13:01;41.28;;;18.65;;
77191;SDS011;66172;48.526;8.078;2024-01-11T13:15:28;40.23;;;17.97;;
77191;SDS011;66172;48.526;8.078;2024-01-11T13:18:01;43.92;;;18.95;;
77191;SDS011;66172;48.526;8.078;2024-01-11T13:20:28;41.95;;;18.77;;
77191;SDS011;66172;48.526;8.078;2024-01-11T13:23:12;38.05;;;18.40;;
77191;SDS011;66172;48.526;8.078;2024-01-11T13:25:42;40.40;;;18.70;;
77191;SDS011;66172;48.526;8.078;2024-01-11T13:28:09;39.50;;;19.07;;
77191;SDS011;66172;48.526;8.078;2024-01-11T13:30:39;40.22;;;18.80;;
77191;SDS011;66172;48.526;8.078;2024-01-11T13:33:06;41.10;;;18.05;;
77191;SDS011;66172;48.526;8.078;2024-01-11T13:35:40;43.38;;;18.67;;
77191;SDS011;66172;48.526;8.078;2024-01-11T13:38:08;42.53;;;19.35;;
77191;SDS011;66172;48.526;8.078;2024-01-11T13:40:34;41.70;;;19.47;;
77191;SDS011;66172;48.526;8.078;2024-01-11T13:43:00;45.55;;;20.05;;
77191;SDS011;66172;48.526;8.078;2024-01-11T13:45:29;47.88;;;20.52;;
77191;SDS011;66172;48.526;8.078;2024-01-11T13:47:55;45.90;;;20.80;;
77191;SDS011;66172;48.526;8.078;2024-01-11T13:50:22;45.50;;;19.40;;
77191;SDS011;66172;48.526;8.078;2024-01-11T13:52:51;42.33;;;19.47;;
77191;SDS011;66172;48.526;8.078;2024-01-11T13:55:17;45.38;;;19.88;;
77191;SDS011;66172;48.526;8.078;2024-01-11T13:57:43;44.70;;;20.85;;
77191;SDS011;66172;48.526;8.078;2024-01-11T14:00:10;50.78;;;22.58;;
77191;SDS011;66172;48.526;8.078;2024-01-11T14:02:37;49.17;;;21.27;;
77191;SDS011;66172;48.526;8.078;2024-01-11T14:05:03;45.70;;;20.63;;
77191;SDS011;66172;48.526;8.078;2024-01-11T14:07:31;43.97;;;21.42;;
77191;SDS011;66172;48.526;8.078;2024-01-11T14:09:57;47.55;;;21.63;;
77191;SDS011;66172;48.526;8.078;2024-01-11T14:12:23;48.72;;;22.55;;
77191;SDS011;66172;48.526;8.078;2024-01-11T14:14:49;51.77;;;22.37;;
77191;SDS011;66172;48.526;8.078;2024-01-11T14:17:15;52.13;;;22.95;;
77191;SDS011;66172;48.526;8.078;2024-01-11T14:19:41;47.88;;;22.63;;
77191;SDS011;66172;48.526;8.078;2024-01-11T14:22:07;44.27;;;21.70;;
77191;SDS011;66172;48.526;8.078;2024-01-11T14:24:33;40.55;;;19.77;;